createdAt,value
2017-12-31T00:01:52.021Z,100014.31
2017-12-31T00:04:17.992Z,100020.46
2017-12-31T00:06:43.956Z,100021.38
2017-12-31T00:09:09.890Z,100017.55
2017-12-31T00:11:35.862Z,100020.40
2017-12-31T00:14:01.946Z,100027.53
2017-12-31T00:16:27.876Z,100028.84
2017-12-31T00:18:53.839Z,100027.14
2017-12-31T00:21:19.786Z,100029.18
2017-12-31T00:23:45.758Z,100036.80
2017-12-31T00:26:11.726Z,100035.56
2017-12-31T00:28:37.668Z,100026.13
2017-12-31T00:31:03.622Z,100023.95
2017-12-31T00:33:29.589Z,100022.98
2017-12-31T00:35:55.545Z,100006.00
2017-12-31T00:38:21.520Z,100007.08
2017-12-31T00:40:47.470Z,99998.80
2017-12-31T00:43:13.445Z,100017.19
2017-12-31T00:45:39.402Z,100017.80
2017-12-31T00:48:05.367Z,100013.64
2017-12-31T00:50:31.324Z,100011.03
2017-12-31T00:52:57.305Z,100008.20
2017-12-31T00:55:23.258Z,100013.36
2017-12-31T00:57:49.193Z,100013.55
2017-12-31T01:00:15.137Z,100020.94
2017-12-31T01:02:41.088Z,100019.21
2017-12-31T01:05:07.042Z,100012.73
2017-12-31T01:07:32.990Z,100018.02
2017-12-31T01:09:58.953Z,100019.08
2017-12-31T01:12:24.915Z,100019.71
2017-12-31T01:14:50.869Z,100022.05
2017-12-31T01:17:16.823Z,100022.61
2017-12-31T01:19:42.935Z,100023.61
2017-12-31T01:22:08.886Z,100022.88
2017-12-31T01:24:34.837Z,100020.97
2017-12-31T01:27:00.802Z,100017.67
2017-12-31T01:29:26.761Z,100016.03
2017-12-31T01:31:52.733Z,100011.98
2017-12-31T01:34:18.681Z,100012.73
2017-12-31T01:36:44.635Z,100011.41
2017-12-31T01:39:10.582Z,100004.14
2017-12-31T01:41:36.533Z,100003.14
2017-12-31T01:44:02.493Z,100005.72
2017-12-31T01:46:29.486Z,100000.62
2017-12-31T01:48:55.439Z,99995.22
2017-12-31T01:51:21.386Z,100009.42
2017-12-31T01:53:47.508Z,99997.47
2017-12-31T01:56:13.437Z,99998.61
2017-12-31T01:58:39.397Z,100008.70
2017-12-31T02:01:05.350Z,100001.84
2017-12-31T02:03:31.289Z,99976.85
2017-12-31T02:05:57.303Z,100006.03
2017-12-31T02:08:23.209Z,99973.02
2017-12-31T02:10:49.145Z,99996.16
2017-12-31T02:13:15.113Z,99981.38
2017-12-31T02:15:41.064Z,100000.19
2017-12-31T02:18:07.061Z,99970.41
2017-12-31T02:20:33.009Z,99979.24
2017-12-31T02:22:58.973Z,99982.55
2017-12-31T02:25:24.950Z,99978.73
2017-12-31T02:27:50.909Z,99964.75
2017-12-31T02:30:16.879Z,99960.19
2017-12-31T02:32:42.837Z,99987.25
2017-12-31T02:35:08.786Z,99972.73
2017-12-31T02:37:34.753Z,99958.20
2017-12-31T02:40:00.846Z,99945.26
2017-12-31T02:42:26.804Z,99956.83
2017-12-31T02:44:52.737Z,99962.83
2017-12-31T02:47:18.679Z,99964.97
2017-12-31T02:49:44.649Z,99964.06
2017-12-31T02:52:10.591Z,99950.13
2017-12-31T02:54:36.538Z,99936.52
2017-12-31T02:57:02.481Z,99931.05
2017-12-31T02:59:28.426Z,99928.91
2017-12-31T03:01:54.368Z,99927.78
2017-12-31T03:04:20.320Z,99925.30
2017-12-31T03:06:46.281Z,99918.61
2017-12-31T03:09:12.257Z,99924.55
2017-12-31T03:11:38.209Z,99909.92
2017-12-31T03:14:04.164Z,99911.41
2017-12-31T03:16:30.109Z,99909.58
2017-12-31T03:18:56.061Z,99909.55
2017-12-31T03:21:22.003Z,99902.11
2017-12-31T03:23:48.078Z,99908.55
2017-12-31T03:26:14.021Z,99902.36
2017-12-31T03:28:39.970Z,99895.28
2017-12-31T03:31:05.914Z,99897.05
2017-12-31T03:33:31.874Z,99899.56
2017-12-31T03:35:57.817Z,99895.09
2017-12-31T03:38:23.786Z,99895.91
2017-12-31T03:40:49.735Z,99894.03
2017-12-31T03:43:15.689Z,99894.78
2017-12-31T03:45:41.624Z,99890.06
2017-12-31T03:48:07.584Z,99885.42
2017-12-31T03:50:33.528Z,99882.49
2017-12-31T03:52:59.466Z,99888.18
2017-12-31T03:55:25.409Z,99886.77
2017-12-31T03:57:51.368Z,99882.91
2017-12-31T04:00:17.328Z,99886.66
2017-12-31T04:02:43.265Z,99895.16
2017-12-31T04:05:09.220Z,99887.17
2017-12-31T04:07:35.205Z,99883.78
2017-12-31T04:10:01.351Z,99876.11
2017-12-31T04:12:27.498Z,99881.30
2017-12-31T04:14:53.485Z,99885.41
2017-12-31T04:17:19.425Z,99882.65
2017-12-31T04:19:45.372Z,99881.85
2017-12-31T04:22:11.318Z,99877.11
2017-12-31T04:24:37.265Z,99873.97
2017-12-31T04:27:03.206Z,99870.23
2017-12-31T04:29:29.151Z,99875.89
2017-12-31T04:31:55.107Z,99874.95
2017-12-31T04:34:21.090Z,99878.03
2017-12-31T04:36:47.052Z,99871.25
2017-12-31T04:39:13.033Z,99868.39
2017-12-31T04:41:39.074Z,99870.27
2017-12-31T04:44:05.021Z,99880.58
2017-12-31T04:46:30.971Z,99876.36
2017-12-31T04:48:56.921Z,99880.47
2017-12-31T04:51:22.949Z,99883.41
2017-12-31T04:53:48.883Z,99876.94
2017-12-31T04:56:14.839Z,99890.38
2017-12-31T04:58:40.809Z,99882.81
2017-12-31T05:01:06.754Z,99883.62
2017-12-31T05:03:32.756Z,99886.36
2017-12-31T05:05:58.724Z,99897.23
2017-12-31T05:08:24.678Z,99892.11
2017-12-31T05:10:50.626Z,99894.78
2017-12-31T05:13:16.560Z,99899.25
2017-12-31T05:15:42.505Z,99895.19
2017-12-31T05:18:08.454Z,99899.16
2017-12-31T05:20:34.422Z,99892.52
2017-12-31T05:23:00.371Z,99886.05
2017-12-31T05:25:26.309Z,99888.59
2017-12-31T05:27:52.272Z,99899.94
2017-12-31T05:30:18.213Z,99899.16
2017-12-31T05:32:44.201Z,99904.27
2017-12-31T05:35:10.143Z,99902.45
2017-12-31T05:37:36.109Z,99908.23
2017-12-31T05:40:02.117Z,99900.95
2017-12-31T05:42:28.056Z,99896.58
2017-12-31T05:44:54.017Z,99912.19
2017-12-31T05:47:19.970Z,99909.39
2017-12-31T05:49:45.921Z,99912.51
2017-12-31T05:52:11.861Z,99913.27
2017-12-31T05:54:37.810Z,99917.22
2017-12-31T05:57:03.760Z,99922.06
2017-12-31T05:59:29.728Z,99923.41
2017-12-31T06:01:55.670Z,99922.44
2017-12-31T06:04:21.738Z,99919.63
2017-12-31T06:06:47.693Z,99916.08
2017-12-31T06:09:13.681Z,99920.52
2017-12-31T06:11:39.618Z,99911.13
2017-12-31T06:14:05.573Z,99912.44
2017-12-31T06:16:31.502Z,99904.69
2017-12-31T06:18:57.454Z,99913.16
2017-12-31T06:21:23.469Z,99905.00
2017-12-31T06:23:49.409Z,99900.72
2017-12-31T06:26:15.377Z,99904.09
2017-12-31T06:28:41.330Z,99904.08
2017-12-31T06:31:07.271Z,99903.38
2017-12-31T06:33:33.216Z,99906.27
2017-12-31T06:35:59.238Z,99893.63
2017-12-31T06:38:25.198Z,99893.22
2017-12-31T06:40:51.169Z,99889.61
2017-12-31T06:43:17.125Z,99888.66
2017-12-31T06:45:43.089Z,99898.72
2017-12-31T06:48:09.048Z,99893.53
2017-12-31T06:50:36.049Z,99899.27
2017-12-31T06:53:02.050Z,99908.78
2017-12-31T06:55:28.017Z,99912.52
2017-12-31T06:57:53.956Z,99909.69
2017-12-31T07:00:19.913Z,99914.50
2017-12-31T07:02:45.894Z,99896.16
2017-12-31T07:05:11.845Z,99903.34
2017-12-31T07:07:37.801Z,99905.61
2017-12-31T07:10:03.750Z,99910.65
2017-12-31T07:12:29.692Z,99905.82
2017-12-31T07:14:55.633Z,99908.31
2017-12-31T07:17:21.609Z,99909.23
2017-12-31T07:19:47.570Z,99909.43
2017-12-31T07:22:13.509Z,99911.95
2017-12-31T07:24:39.585Z,99921.92
2017-12-31T07:27:05.517Z,99929.95
2017-12-31T07:29:31.457Z,99922.17
2017-12-31T07:31:57.420Z,99921.25
2017-12-31T07:34:23.462Z,99923.60
2017-12-31T07:36:49.419Z,99931.63
2017-12-31T07:39:15.374Z,99930.72
2017-12-31T07:41:41.334Z,99932.08
2017-12-31T07:44:07.297Z,99921.01
2017-12-31T07:46:33.257Z,99926.03
2017-12-31T07:48:59.242Z,99928.43
2017-12-31T07:51:25.196Z,99923.09
2017-12-31T07:53:51.152Z,99932.63
2017-12-31T07:56:17.095Z,99923.44
2017-12-31T07:58:43.045Z,99930.14
2017-12-31T08:01:08.982Z,99936.66
2017-12-31T08:03:34.957Z,99943.42
2017-12-31T08:06:00.940Z,99948.30
2017-12-31T08:08:26.858Z,99952.77
2017-12-31T08:10:52.809Z,99946.97
2017-12-31T08:13:18.773Z,99944.23
2017-12-31T08:15:44.812Z,99948.14
2017-12-31T08:18:10.782Z,99944.03
2017-12-31T08:20:36.748Z,99943.83
2017-12-31T08:23:02.696Z,99930.45
2017-12-31T08:25:28.650Z,99927.76
2017-12-31T08:27:54.610Z,99931.46
2017-12-31T08:30:20.586Z,99932.44
2017-12-31T08:32:46.540Z,99926.49
2017-12-31T08:35:12.496Z,99923.64
2017-12-31T08:37:38.594Z,99921.82
2017-12-31T08:40:04.545Z,99924.71
2017-12-31T08:42:30.537Z,99915.50
2017-12-31T08:44:56.502Z,99917.86
2017-12-31T08:47:22.549Z,99918.16
2017-12-31T08:49:48.501Z,99919.48
2017-12-31T08:52:14.463Z,99916.34
2017-12-31T08:54:40.429Z,99921.77
2017-12-31T08:57:06.377Z,99918.66
2017-12-31T08:59:32.319Z,99918.56
2017-12-31T09:01:58.365Z,99915.36
2017-12-31T09:04:24.311Z,99918.47
2017-12-31T09:06:50.283Z,99910.23
2017-12-31T09:09:16.226Z,99912.27
2017-12-31T09:11:42.380Z,99911.29
2017-12-31T09:14:08.328Z,99909.56
2017-12-31T09:16:34.316Z,99905.05
2017-12-31T09:19:00.263Z,99913.84
2017-12-31T09:21:26.209Z,99914.08
2017-12-31T09:23:52.158Z,99913.96
2017-12-31T09:26:18.095Z,99909.22
2017-12-31T09:28:44.070Z,99906.36
2017-12-31T09:31:09.988Z,99902.84
2017-12-31T09:33:35.954Z,99907.98
2017-12-31T09:36:01.901Z,99911.84
2017-12-31T09:38:27.885Z,99916.16
2017-12-31T09:40:53.842Z,99909.30
2017-12-31T09:43:19.990Z,99907.48
2017-12-31T09:45:45.974Z,99910.02
2017-12-31T09:48:11.909Z,99915.44
2017-12-31T09:50:37.853Z,99919.07
2017-12-31T09:53:03.830Z,99912.66
2017-12-31T09:55:29.814Z,99914.34
2017-12-31T09:57:55.769Z,99907.57
2017-12-31T10:00:21.781Z,99909.47
2017-12-31T10:02:47.744Z,99897.31
2017-12-31T10:05:14.076Z,99912.72
2017-12-31T10:07:40.032Z,99917.48
2017-12-31T10:10:05.990Z,99917.50
2017-12-31T10:12:31.937Z,99909.98
2017-12-31T10:14:57.882Z,99903.22
2017-12-31T10:17:23.853Z,99904.34
2017-12-31T10:19:49.810Z,99905.41
2017-12-31T10:22:15.753Z,99904.18
2017-12-31T10:24:41.702Z,99901.22
2017-12-31T10:27:09.780Z,99905.08
2017-12-31T10:29:35.705Z,99905.08
2017-12-31T10:32:01.774Z,99888.92
2017-12-31T10:34:27.713Z,99890.35
2017-12-31T10:36:53.666Z,99877.03
2017-12-31T10:39:19.622Z,99875.94
2017-12-31T10:41:45.615Z,99868.12
2017-12-31T10:44:11.617Z,99860.47
2017-12-31T10:46:37.532Z,99859.59
2017-12-31T10:49:03.490Z,99852.86
2017-12-31T10:51:29.458Z,99847.77
2017-12-31T10:53:55.431Z,99851.27
2017-12-31T10:56:21.409Z,99841.03
2017-12-31T10:58:47.345Z,99851.06
2017-12-31T11:01:13.345Z,99847.06
2017-12-31T11:03:39.276Z,99857.63
2017-12-31T11:06:05.259Z,99863.37
2017-12-31T11:08:31.249Z,99861.70
2017-12-31T11:10:57.209Z,99864.70
2017-12-31T11:13:23.231Z,99866.19
2017-12-31T11:15:49.191Z,99861.58
2017-12-31T11:18:15.144Z,99856.77
2017-12-31T11:20:41.087Z,99845.72
2017-12-31T11:23:07.077Z,99843.50
2017-12-31T11:25:33.040Z,99830.45
2017-12-31T11:27:59.043Z,99832.28
2017-12-31T11:30:26.070Z,99831.27
2017-12-31T11:32:52.028Z,99825.91
2017-12-31T11:35:18.119Z,99819.28
2017-12-31T11:37:44.080Z,99825.87
2017-12-31T11:40:10.028Z,99810.69
2017-12-31T11:42:35.984Z,99800.26
2017-12-31T11:45:01.954Z,99802.13
2017-12-31T11:47:27.924Z,99791.20
2017-12-31T11:49:53.905Z,99798.75
2017-12-31T11:52:19.864Z,99788.13
2017-12-31T11:54:45.822Z,99776.09
2017-12-31T11:57:11.793Z,99775.78
2017-12-31T11:59:37.761Z,99769.27
2017-12-31T12:02:03.738Z,99769.91
2017-12-31T12:04:29.699Z,99767.82
2017-12-31T12:06:55.657Z,99769.74
2017-12-31T12:09:21.627Z,99765.17
2017-12-31T12:11:47.574Z,99769.89
2017-12-31T12:14:13.577Z,99759.02
2017-12-31T12:16:39.523Z,99760.30
2017-12-31T12:19:05.476Z,99768.28
2017-12-31T12:21:31.426Z,99747.25
2017-12-31T12:23:57.385Z,99753.35
2017-12-31T12:26:23.371Z,99747.25
2017-12-31T12:28:49.325Z,99742.92
2017-12-31T12:31:15.262Z,99736.31
2017-12-31T12:33:41.239Z,99736.16
2017-12-31T12:36:08.260Z,99731.03
2017-12-31T12:38:34.238Z,99726.08
2017-12-31T12:41:00.185Z,99729.34
2017-12-31T12:43:26.150Z,99727.90
2017-12-31T12:45:52.111Z,99719.44
2017-12-31T12:48:20.210Z,99710.59
2017-12-31T12:50:46.138Z,99705.84
2017-12-31T12:53:12.113Z,99712.59
2017-12-31T12:55:38.081Z,99700.87
2017-12-31T12:58:04.029Z,99705.65
2017-12-31T13:00:29.996Z,99701.03
2017-12-31T13:02:55.945Z,99680.93
2017-12-31T13:05:22.014Z,99697.78
2017-12-31T13:07:48.137Z,99686.59
2017-12-31T13:10:14.280Z,99672.97
2017-12-31T13:12:40.433Z,99662.05
2017-12-31T13:15:06.565Z,99651.73
2017-12-31T13:17:32.540Z,99642.77
2017-12-31T13:19:58.508Z,99645.41
2017-12-31T13:22:24.441Z,99638.83
2017-12-31T13:24:50.406Z,99631.64
2017-12-31T13:27:16.344Z,99632.83
2017-12-31T13:29:42.285Z,99626.49
2017-12-31T13:32:08.285Z,99619.20
2017-12-31T13:34:34.245Z,99629.37
2017-12-31T13:37:00.189Z,99625.23
2017-12-31T13:39:26.148Z,99629.88
2017-12-31T13:41:52.089Z,99620.02
2017-12-31T13:44:18.076Z,99619.34
2017-12-31T13:46:44.041Z,99610.49
2017-12-31T13:49:10.015Z,99611.03
2017-12-31T13:51:36.070Z,99614.36
2017-12-31T13:54:02.030Z,99609.81
2017-12-31T13:56:27.975Z,99614.05
2017-12-31T13:58:53.945Z,99609.81
2017-12-31T14:01:19.882Z,99604.77
2017-12-31T14:03:45.818Z,99616.25
2017-12-31T14:06:11.761Z,99615.78
2017-12-31T14:08:37.701Z,99611.41
2017-12-31T14:11:03.660Z,99610.59
2017-12-31T14:13:29.604Z,99601.86
2017-12-31T14:15:55.560Z,99605.72
2017-12-31T14:18:21.522Z,99592.06
2017-12-31T14:20:47.492Z,99583.25
2017-12-31T14:23:13.449Z,99582.06
2017-12-31T14:25:39.413Z,99572.84
2017-12-31T14:28:05.383Z,99570.31
2017-12-31T14:30:31.341Z,99574.77
2017-12-31T14:32:57.302Z,99566.91
2017-12-31T14:35:23.242Z,99562.78
2017-12-31T14:37:49.229Z,99561.22
2017-12-31T14:40:15.183Z,99558.69
2017-12-31T14:42:41.157Z,99562.33
2017-12-31T14:45:07.108Z,99543.70
2017-12-31T14:47:33.365Z,99546.00
2017-12-31T14:49:59.321Z,99551.12
2017-12-31T14:52:25.298Z,99543.73
2017-12-31T14:54:51.500Z,99546.02
2017-12-31T14:57:17.478Z,99540.80
2017-12-31T14:59:43.615Z,99539.10
2017-12-31T15:02:09.586Z,99522.80
2017-12-31T15:04:35.581Z,99524.12
2017-12-31T15:07:01.526Z,99520.16
2017-12-31T15:09:27.496Z,99525.07
2017-12-31T15:11:53.469Z,99530.66
2017-12-31T15:14:19.425Z,99525.53
2017-12-31T15:16:45.370Z,99526.72
2017-12-31T15:19:11.329Z,99535.02
2017-12-31T15:21:37.293Z,99526.16
2017-12-31T15:24:03.266Z,99535.41
2017-12-31T15:26:29.223Z,99526.45
2017-12-31T15:28:55.257Z,99528.08
2017-12-31T15:31:21.219Z,99515.47
2017-12-31T15:33:47.194Z,99521.53
2017-12-31T15:36:13.189Z,99515.70
2017-12-31T15:38:39.136Z,99505.30
2017-12-31T15:41:05.105Z,99498.51
2017-12-31T15:43:31.045Z,99507.21
2017-12-31T15:45:57.017Z,99505.17
2017-12-31T15:48:23.018Z,99494.00
2017-12-31T15:50:49.031Z,99495.39
2017-12-31T15:53:14.986Z,99501.72
2017-12-31T15:55:40.969Z,99494.03
2017-12-31T15:58:06.952Z,99490.35
2017-12-31T16:00:32.892Z,99494.34
2017-12-31T16:02:58.856Z,99490.71
2017-12-31T16:05:24.841Z,99488.12
2017-12-31T16:07:50.792Z,99478.56
2017-12-31T16:10:16.762Z,99475.02
2017-12-31T16:12:42.743Z,99464.95
2017-12-31T16:15:08.729Z,99468.25
2017-12-31T16:17:34.669Z,99456.35
2017-12-31T16:20:00.618Z,99469.08
2017-12-31T16:22:26.565Z,99448.34
2017-12-31T16:24:52.503Z,99455.30
2017-12-31T16:27:18.437Z,99445.29
2017-12-31T16:29:44.406Z,99443.69
2017-12-31T16:32:10.372Z,99454.81
2017-12-31T16:34:36.321Z,99454.98
2017-12-31T16:37:02.272Z,99442.09
2017-12-31T16:39:28.245Z,99439.86
2017-12-31T16:41:54.204Z,99446.91
2017-12-31T16:44:20.177Z,99443.02
2017-12-31T16:46:46.118Z,99425.55
2017-12-31T16:49:12.065Z,99428.61
2017-12-31T16:51:38.025Z,99424.91
2017-12-31T16:54:03.974Z,99424.48
2017-12-31T16:56:29.990Z,99415.45
2017-12-31T16:58:55.925Z,99410.45
2017-12-31T17:01:21.887Z,99401.19
2017-12-31T17:03:47.860Z,99393.72
2017-12-31T17:06:13.794Z,99393.97
2017-12-31T17:08:39.746Z,99399.67
2017-12-31T17:11:05.698Z,99392.63
2017-12-31T17:13:31.699Z,99375.27
2017-12-31T17:15:57.649Z,99383.94
2017-12-31T17:18:23.598Z,99380.12
2017-12-31T17:20:49.553Z,99372.31
2017-12-31T17:23:15.517Z,99376.17
2017-12-31T17:25:41.475Z,99371.30
2017-12-31T17:28:07.461Z,99371.17
2017-12-31T17:30:33.410Z,99366.16
2017-12-31T17:32:59.400Z,99367.89
2017-12-31T17:35:25.333Z,99370.43
2017-12-31T17:37:51.278Z,99360.75
2017-12-31T17:40:17.214Z,99359.81
2017-12-31T17:42:43.175Z,99363.62
2017-12-31T17:45:09.130Z,99348.80
2017-12-31T17:47:35.110Z,99339.41
2017-12-31T17:50:01.050Z,99325.17
2017-12-31T17:52:27.015Z,99325.23
2017-12-31T17:54:52.957Z,99325.84
2017-12-31T17:57:18.962Z,99323.77
2017-12-31T17:59:44.894Z,99319.95
2017-12-31T18:02:11.138Z,99328.14
2017-12-31T18:04:37.130Z,99323.41
2017-12-31T18:07:03.059Z,99320.95
2017-12-31T18:09:29.021Z,99330.59
2017-12-31T18:11:54.987Z,99320.79
2017-12-31T18:14:20.960Z,99327.84
2017-12-31T18:16:46.909Z,99323.55
2017-12-31T18:19:12.893Z,99318.75
2017-12-31T18:21:38.848Z,99305.36
2017-12-31T18:24:04.836Z,99303.58
2017-12-31T18:26:30.789Z,99296.99
2017-12-31T18:28:56.758Z,99310.47
2017-12-31T18:31:22.738Z,99307.40
2017-12-31T18:33:48.667Z,99303.38
2017-12-31T18:36:14.578Z,99305.61
2017-12-31T18:38:40.523Z,99302.86
2017-12-31T18:41:06.502Z,99306.09
2017-12-31T18:43:32.441Z,99298.42
2017-12-31T18:45:58.423Z,99299.02
2017-12-31T18:48:24.374Z,99286.42
2017-12-31T18:50:50.339Z,99279.98
2017-12-31T18:53:16.301Z,99281.70
2017-12-31T18:55:42.261Z,99284.44
2017-12-31T18:58:08.238Z,99288.96
2017-12-31T19:00:34.195Z,99286.72
2017-12-31T19:03:00.158Z,99283.25
2017-12-31T19:05:26.119Z,99277.47
2017-12-31T19:07:52.081Z,99289.55
2017-12-31T19:10:18.018Z,99282.27
2017-12-31T19:12:43.975Z,99278.59
2017-12-31T19:15:09.914Z,99279.46
2017-12-31T19:17:35.904Z,99278.30
2017-12-31T19:20:01.864Z,99266.30
2017-12-31T19:22:27.840Z,99269.50
2017-12-31T19:24:53.833Z,99278.04
2017-12-31T19:27:19.786Z,99283.14
2017-12-31T19:29:45.741Z,99280.55
2017-12-31T19:32:11.692Z,99281.94
2017-12-31T19:34:37.662Z,99282.33
2017-12-31T19:37:03.637Z,99277.22
2017-12-31T19:39:29.605Z,99280.95
2017-12-31T19:41:55.554Z,99279.05
2017-12-31T19:44:21.542Z,99279.52
2017-12-31T19:46:47.518Z,99280.84
2017-12-31T19:49:13.461Z,99286.81
2017-12-31T19:51:39.399Z,99270.70
2017-12-31T19:54:05.359Z,99273.59
2017-12-31T19:56:31.308Z,99280.19
2017-12-31T19:58:57.312Z,99279.62
2017-12-31T20:01:23.273Z,99278.53
2017-12-31T20:03:49.237Z,99281.96
2017-12-31T20:06:15.204Z,99282.24
2017-12-31T20:08:41.164Z,99286.96
2017-12-31T20:11:07.114Z,99284.70
2017-12-31T20:13:33.180Z,99288.27
2017-12-31T20:15:59.130Z,99295.84
2017-12-31T20:18:25.073Z,99303.54
2017-12-31T20:20:51.075Z,99305.14
2017-12-31T20:23:17.069Z,99304.52
2017-12-31T20:25:43.038Z,99331.00
2017-12-31T20:28:08.981Z,99339.17
2017-12-31T20:30:34.957Z,99400.52
2017-12-31T20:33:00.909Z,99394.48
2017-12-31T20:35:26.861Z,99397.19
2017-12-31T20:37:52.812Z,99395.23
2017-12-31T20:40:18.752Z,99389.92
2017-12-31T20:42:44.723Z,99392.89
2017-12-31T20:45:10.670Z,99403.12
2017-12-31T20:47:36.625Z,99422.23
2017-12-31T20:50:02.591Z,99412.02
2017-12-31T20:52:28.553Z,99420.66
2017-12-31T20:54:54.507Z,99418.11
2017-12-31T20:57:20.459Z,99421.94
2017-12-31T20:59:46.420Z,99410.69
2017-12-31T21:02:12.392Z,99415.98
2017-12-31T21:04:38.346Z,99415.06
2017-12-31T21:07:04.341Z,99400.85
2017-12-31T21:09:30.281Z,99403.86
2017-12-31T21:11:56.274Z,99405.14
2017-12-31T21:14:22.234Z,99403.19
2017-12-31T21:16:48.190Z,99406.05
2017-12-31T21:19:14.151Z,99398.36
2017-12-31T21:21:40.109Z,99392.66
2017-12-31T21:24:06.158Z,99399.47
2017-12-31T21:26:32.121Z,99402.58
2017-12-31T21:28:58.075Z,99404.20
2017-12-31T21:31:24.185Z,99402.60
2017-12-31T21:33:50.125Z,99397.49
2017-12-31T21:36:16.101Z,99403.97
2017-12-31T21:38:42.045Z,99400.47
2017-12-31T21:41:07.993Z,99393.73
2017-12-31T21:43:33.961Z,99390.99
2017-12-31T21:45:59.910Z,99386.55
2017-12-31T21:48:25.882Z,99396.28
2017-12-31T21:50:51.821Z,99395.88
2017-12-31T21:53:17.802Z,99397.70
2017-12-31T21:55:43.759Z,99402.98
2017-12-31T21:58:09.769Z,99387.66
2017-12-31T22:00:35.682Z,99392.14
2017-12-31T22:03:01.629Z,99402.81
2017-12-31T22:05:27.593Z,99400.91
2017-12-31T22:07:53.560Z,99392.89
2017-12-31T22:10:19.528Z,99390.47
2017-12-31T22:12:45.470Z,99399.22
2017-12-31T22:15:11.466Z,99406.46
2017-12-31T22:17:37.417Z,99425.52
2017-12-31T22:20:03.402Z,99418.45
2017-12-31T22:22:29.348Z,99416.38
2017-12-31T22:24:55.307Z,99407.30
2017-12-31T22:27:21.258Z,99410.21
2017-12-31T22:29:47.202Z,99411.48
2017-12-31T22:32:13.150Z,99424.79
2017-12-31T22:34:39.091Z,99431.61
2017-12-31T22:37:05.086Z,99439.30
2017-12-31T22:39:31.061Z,99423.00
2017-12-31T22:41:57.014Z,99426.13
2017-12-31T22:44:23.046Z,99423.69
2017-12-31T22:46:49.010Z,99435.00
2017-12-31T22:49:14.965Z,99443.33
2017-12-31T22:51:40.938Z,99453.39
2017-12-31T22:54:06.897Z,99455.39
2017-12-31T22:56:32.842Z,99464.80
2017-12-31T22:58:58.793Z,99468.67
2017-12-31T23:01:24.781Z,99463.28
2017-12-31T23:03:50.735Z,99468.20
2017-12-31T23:06:16.674Z,99452.01
2017-12-31T23:08:42.662Z,99461.42
2017-12-31T23:11:08.609Z,99465.23
2017-12-31T23:13:34.599Z,99465.91
2017-12-31T23:16:00.538Z,99487.27
2017-12-31T23:18:26.486Z,99512.38
2017-12-31T23:20:52.421Z,99514.81
2017-12-31T23:23:18.442Z,99506.66
2017-12-31T23:25:44.410Z,99531.41
2017-12-31T23:28:10.357Z,99539.95
2017-12-31T23:30:36.315Z,99536.47
2017-12-31T23:33:02.262Z,99545.75
2017-12-31T23:35:28.222Z,99554.31
2017-12-31T23:37:54.185Z,99548.22
2017-12-31T23:40:20.138Z,99577.19
2017-12-31T23:42:46.106Z,99592.62
2017-12-31T23:45:12.234Z,99619.45
2017-12-31T23:47:38.224Z,99632.98
2017-12-31T23:50:04.172Z,99653.48
2017-12-31T23:52:30.126Z,99631.56
2017-12-31T23:54:56.079Z,99626.05
2017-12-31T23:57:22.026Z,99618.39
2017-12-31T23:59:48.138Z,99612.37
